createdAt,value
2018-06-10T00:00:12.542Z,16.80
2018-06-10T00:02:41.031Z,16.80
2018-06-10T00:05:09.503Z,16.80
2018-06-10T00:07:38.139Z,16.80
2018-06-10T00:10:06.692Z,16.70
2018-06-10T00:12:35.151Z,16.70
2018-06-10T00:17:31.831Z,16.60
2018-06-10T00:20:00.312Z,16.60
2018-06-10T00:22:28.791Z,16.60
2018-06-10T00:24:57.292Z,16.60
2018-06-10T00:27:25.746Z,16.60
2018-06-10T00:29:54.263Z,16.60
2018-06-10T00:32:22.721Z,16.60
2018-06-10T00:34:51.261Z,16.70
2018-06-10T00:37:19.753Z,16.70
2018-06-10T00:39:48.292Z,16.70
2018-06-10T00:42:16.808Z,16.70
2018-06-10T00:44:45.301Z,16.60
2018-06-10T00:49:42.807Z,16.60
2018-06-10T00:52:11.279Z,16.60
2018-06-10T00:54:40.015Z,16.60
2018-06-10T00:57:08.699Z,16.60
2018-06-10T00:59:37.250Z,16.60
2018-06-10T01:02:05.756Z,16.60
2018-06-10T01:04:34.351Z,16.60
2018-06-10T01:07:02.848Z,16.60
2018-06-10T01:09:31.308Z,16.60
2018-06-10T01:11:59.892Z,16.60
2018-06-10T01:14:28.438Z,16.60
2018-06-10T01:16:57.008Z,16.60
2018-06-10T01:21:53.682Z,16.50
2018-06-10T01:24:22.163Z,16.50
2018-06-10T01:26:51.212Z,16.50
2018-06-10T01:29:20.072Z,16.50
2018-06-10T01:31:48.614Z,16.50
2018-06-10T01:34:17.119Z,16.50
2018-06-10T01:36:45.666Z,16.50
2018-06-10T01:39:14.132Z,16.50
2018-06-10T01:41:42.808Z,16.50
2018-06-10T01:44:11.353Z,16.50
2018-06-10T01:46:39.810Z,16.50
2018-06-10T01:49:08.382Z,16.50
2018-06-10T01:51:36.851Z,16.60
2018-06-10T01:54:05.419Z,16.60
2018-06-10T01:56:33.874Z,16.60
2018-06-10T01:59:02.540Z,16.60
2018-06-10T02:01:30.987Z,16.60
2018-06-10T02:03:59.636Z,16.50
2018-06-10T02:06:28.123Z,16.50
2018-06-10T02:08:56.588Z,16.50
2018-06-10T02:11:25.162Z,16.50
2018-06-10T02:13:53.706Z,16.50
2018-06-10T02:16:22.251Z,16.50
2018-06-10T02:18:50.768Z,16.50
2018-06-10T02:21:19.522Z,16.60
2018-06-10T02:26:16.188Z,16.50
2018-06-10T02:28:44.685Z,16.50
2018-06-10T02:31:13.377Z,16.50
2018-06-10T02:33:41.830Z,16.50
2018-06-10T02:36:10.343Z,16.50
2018-06-10T02:38:38.935Z,16.50
2018-06-10T02:41:07.467Z,16.50
2018-06-10T02:43:35.948Z,16.60
2018-06-10T02:46:04.455Z,16.50
2018-06-10T02:48:32.907Z,16.50
2018-06-10T02:51:01.396Z,16.50
2018-06-10T02:53:29.859Z,16.40
2018-06-10T02:55:58.415Z,16.40
2018-06-10T02:58:26.883Z,16.50
2018-06-10T03:00:55.471Z,16.50
2018-06-10T03:03:23.971Z,16.50
2018-06-10T03:05:52.450Z,16.60
2018-06-10T03:10:49.173Z,16.60
2018-06-10T03:13:17.720Z,16.60
2018-06-10T03:15:46.187Z,16.60
2018-06-10T03:18:14.701Z,16.60
2018-06-10T03:20:43.162Z,16.70
2018-06-10T03:23:11.836Z,16.60
2018-06-10T03:25:40.280Z,16.60
2018-06-10T03:28:08.775Z,16.60
2018-06-10T03:30:37.227Z,16.60
2018-06-10T03:33:05.728Z,16.50
2018-06-10T03:35:34.227Z,16.50
2018-06-10T03:38:02.725Z,16.50
2018-06-10T03:40:31.327Z,16.40
2018-06-10T03:42:59.848Z,16.40
2018-06-10T03:45:28.331Z,16.30
2018-06-10T03:47:56.844Z,16.30
2018-06-10T03:52:53.560Z,16.30
2018-06-10T03:55:22.086Z,16.30
2018-06-10T03:57:50.629Z,16.40
2018-06-10T04:00:19.207Z,16.40
2018-06-10T04:02:47.811Z,16.40
2018-06-10T04:05:16.329Z,16.50
2018-06-10T04:10:13.035Z,16.60
2018-06-10T04:12:41.504Z,16.60
2018-06-10T04:15:10.287Z,16.60
2018-06-10T04:17:38.800Z,16.70
2018-06-10T04:20:07.293Z,16.70
2018-06-10T04:22:35.792Z,16.70
2018-06-10T04:25:04.336Z,16.70
2018-06-10T04:27:33.080Z,16.70
2018-06-10T04:30:01.584Z,16.70
2018-06-10T04:32:30.073Z,16.70
2018-06-10T04:34:58.555Z,16.70
2018-06-10T04:37:27.095Z,16.70
2018-06-10T04:39:55.538Z,16.70
2018-06-10T04:42:24.205Z,16.80
2018-06-10T04:44:52.701Z,16.80
2018-06-10T04:47:21.256Z,16.80
2018-06-10T04:49:49.765Z,16.90
2018-06-10T04:52:18.235Z,16.90
2018-06-10T04:54:46.703Z,16.90
2018-06-10T04:57:15.433Z,17.00
2018-06-10T04:59:43.991Z,17.00
2018-06-10T05:02:12.503Z,17.00
2018-06-10T05:04:40.952Z,17.00
2018-06-10T05:07:09.488Z,17.10
2018-06-10T05:09:38.230Z,17.10
2018-06-10T05:12:06.892Z,17.10
2018-06-10T05:14:35.479Z,17.10
2018-06-10T05:17:04.352Z,17.10
2018-06-10T05:19:32.982Z,17.10
2018-06-10T05:22:01.493Z,17.00
2018-06-10T05:24:29.960Z,17.10
2018-06-10T05:26:58.472Z,17.10
2018-06-10T05:29:27.415Z,17.00
2018-06-10T05:31:55.915Z,17.00
2018-06-10T05:34:24.378Z,17.00
2018-06-10T05:36:52.876Z,17.00
2018-06-10T05:39:21.343Z,17.00
2018-06-10T05:41:49.867Z,17.00
2018-06-10T05:44:18.334Z,17.10
2018-06-10T05:46:46.886Z,17.10
2018-06-10T05:49:15.343Z,17.20
2018-06-10T05:54:12.046Z,17.20
2018-06-10T05:56:40.555Z,17.20
2018-06-10T05:59:09.038Z,17.30
2018-06-10T06:01:37.537Z,17.30
2018-06-10T06:06:34.271Z,17.40
2018-06-10T06:09:02.772Z,17.40
2018-06-10T06:11:31.325Z,17.40
2018-06-10T06:13:59.855Z,17.50
2018-06-10T06:16:28.356Z,17.50
2018-06-10T06:18:56.879Z,17.50
2018-06-10T06:21:25.381Z,17.60
2018-06-10T06:23:53.925Z,17.60
2018-06-10T06:26:22.424Z,17.60
2018-06-10T06:28:50.892Z,17.70
2018-06-10T06:31:19.415Z,17.70
2018-06-10T06:33:47.902Z,17.80
2018-06-10T06:36:16.416Z,17.80
2018-06-10T06:38:44.882Z,17.90
2018-06-10T06:41:13.544Z,17.90
2018-06-10T06:43:42.021Z,18.00
2018-06-10T06:46:10.539Z,18.00
2018-06-10T06:48:39.057Z,18.00
2018-06-10T06:51:07.540Z,18.00
2018-06-10T06:53:36.073Z,18.00
2018-06-10T06:56:04.576Z,18.00
2018-06-10T06:58:33.062Z,18.10
2018-06-10T07:01:01.553Z,18.10
2018-06-10T07:03:30.156Z,18.20
2018-06-10T07:05:58.791Z,18.20
2018-06-10T07:10:55.497Z,18.20
2018-06-10T07:13:24.010Z,18.30
2018-06-10T07:15:52.521Z,18.40
2018-06-10T07:18:21.072Z,18.40
2018-06-10T07:20:49.526Z,18.60
2018-06-10T07:23:18.043Z,18.70
2018-06-10T07:25:46.548Z,18.80
2018-06-10T07:28:15.077Z,18.90
2018-06-10T07:30:43.540Z,19.00
2018-06-10T07:33:12.095Z,19.20
2018-06-10T07:35:40.597Z,19.20
2018-06-10T07:38:09.086Z,19.20
2018-06-10T07:40:37.614Z,19.20
2018-06-10T07:43:06.141Z,19.10
2018-06-10T07:45:34.642Z,19.10
2018-06-10T07:48:03.164Z,19.10
2018-06-10T07:50:31.662Z,19.20
2018-06-10T07:53:00.175Z,19.40
2018-06-10T07:55:28.792Z,19.60
2018-06-10T07:57:57.324Z,19.60
2018-06-10T08:00:26.225Z,19.70
2018-06-10T08:02:54.711Z,19.80
2018-06-10T08:05:23.272Z,19.90
2018-06-10T08:07:51.708Z,20.10
2018-06-10T08:10:20.280Z,20.40
2018-06-10T08:12:49.029Z,20.60
2018-06-10T08:17:45.830Z,21.20
2018-06-10T08:20:14.360Z,21.40
2018-06-10T08:22:42.908Z,21.10
2018-06-10T08:25:11.473Z,20.80
2018-06-10T08:27:39.954Z,20.80
2018-06-10T08:30:08.505Z,21.00
2018-06-10T08:32:36.977Z,21.00
2018-06-10T08:35:05.540Z,20.80
2018-06-10T08:37:34.032Z,20.60
2018-06-10T08:40:02.591Z,20.60
2018-06-10T08:42:31.103Z,20.80
2018-06-10T08:44:59.674Z,20.70
2018-06-10T08:47:28.229Z,20.80
2018-06-10T08:49:56.730Z,21.00
2018-06-10T08:52:25.255Z,21.10
2018-06-10T08:57:21.915Z,21.20
2018-06-10T08:59:50.362Z,21.40
2018-06-10T09:02:18.909Z,21.90
2018-06-10T09:04:47.407Z,22.30
2018-06-10T09:07:16.066Z,22.60
2018-06-10T09:09:44.552Z,22.80
2018-06-10T09:12:13.023Z,22.80
2018-06-10T09:14:41.718Z,22.60
2018-06-10T09:19:38.316Z,22.30
2018-06-10T09:22:06.829Z,22.40
2018-06-10T09:24:35.316Z,22.60
2018-06-10T09:27:03.929Z,22.50
2018-06-10T09:29:32.420Z,22.30
2018-06-10T09:32:02.693Z,22.50
2018-06-10T09:34:31.261Z,22.40
2018-06-10T09:36:59.758Z,22.40
2018-06-10T09:39:28.409Z,22.40
2018-06-10T09:41:57.057Z,22.30
2018-06-10T09:44:25.531Z,22.60
2018-06-10T09:49:22.199Z,22.80
2018-06-10T09:51:50.728Z,22.90
2018-06-10T09:54:19.164Z,22.90
2018-06-10T09:56:47.746Z,23.00
2018-06-10T09:59:16.252Z,23.00
2018-06-10T10:01:44.839Z,23.00
2018-06-10T10:04:13.335Z,23.10
2018-06-10T10:06:41.812Z,23.10
2018-06-10T10:09:10.328Z,23.20
2018-06-10T10:11:38.845Z,23.10
2018-06-10T10:14:07.473Z,23.00
2018-06-10T10:16:36.038Z,23.30
2018-06-10T10:19:04.526Z,23.60
2018-06-10T10:21:33.018Z,23.60
2018-06-10T10:24:01.546Z,23.40
2018-06-10T10:26:30.052Z,23.30
2018-06-10T10:28:58.519Z,23.00
2018-06-10T10:33:55.212Z,22.80
2018-06-10T10:36:23.692Z,22.90
2018-06-10T10:38:52.375Z,23.20
2018-06-10T10:41:20.886Z,23.40
2018-06-10T10:48:45.828Z,23.60
2018-06-10T10:51:14.381Z,23.60
2018-06-10T10:53:42.887Z,23.40
2018-06-10T10:56:11.563Z,23.40
2018-06-10T10:58:40.066Z,23.70
2018-06-10T11:01:08.548Z,23.90
2018-06-10T11:03:37.032Z,24.00
2018-06-10T11:06:05.643Z,24.10
2018-06-10T11:08:34.115Z,24.00
2018-06-10T11:13:30.960Z,24.00
2018-06-10T11:15:59.508Z,24.00
2018-06-10T11:18:28.259Z,24.20
2018-06-10T11:20:56.722Z,24.30
2018-06-10T11:23:25.293Z,24.30
2018-06-10T11:25:53.904Z,24.20
2018-06-10T11:28:22.403Z,24.00
2018-06-10T11:30:51.030Z,24.00
2018-06-10T11:33:19.604Z,24.20
2018-06-10T11:35:48.101Z,24.40
2018-06-10T11:38:16.645Z,24.30
2018-06-10T11:40:45.128Z,24.10
2018-06-10T11:43:18.360Z,24.10
2018-06-10T11:45:51.670Z,24.20
2018-06-10T11:48:26.981Z,24.20
2018-06-10T11:51:01.531Z,24.10
2018-06-10T11:53:30.079Z,24.20
2018-06-10T11:55:58.698Z,24.30
2018-06-10T11:58:32.637Z,24.50
2018-06-10T12:01:06.457Z,24.30
2018-06-10T12:03:39.514Z,24.50
2018-06-10T12:06:12.339Z,24.50
2018-06-10T12:08:40.963Z,24.40
2018-06-10T12:11:14.224Z,24.20
2018-06-10T12:13:49.510Z,24.00
2018-06-10T12:16:21.871Z,24.00
2018-06-10T12:18:55.959Z,24.10
2018-06-10T12:21:28.814Z,24.00
2018-06-10T12:23:57.329Z,23.80
2018-06-10T12:26:25.888Z,23.50
2018-06-10T12:28:57.269Z,23.20
2018-06-10T12:31:25.881Z,23.10
2018-06-10T12:33:54.385Z,22.90
2018-06-10T12:36:22.900Z,22.90
2018-06-10T12:38:51.407Z,23.00
2018-06-10T12:41:19.942Z,23.10
2018-06-10T12:43:48.448Z,23.30
2018-06-10T12:46:16.911Z,23.40
2018-06-10T12:48:45.442Z,23.50
2018-06-10T12:51:18.330Z,23.60
2018-06-10T12:53:46.892Z,23.60
2018-06-10T12:56:20.419Z,23.70
2018-06-10T12:58:53.702Z,23.80
2018-06-10T13:01:26.206Z,23.60
2018-06-10T13:03:59.859Z,23.40
2018-06-10T13:06:28.427Z,23.40
2018-06-10T13:08:57.097Z,23.40
2018-06-10T13:13:53.819Z,23.20
2018-06-10T13:16:22.422Z,23.10
2018-06-10T13:18:50.916Z,23.10
2018-06-10T13:23:47.630Z,22.90
2018-06-10T13:26:16.151Z,23.10
2018-06-10T13:28:48.839Z,23.30
2018-06-10T13:31:18.272Z,23.40
2018-06-10T13:33:46.823Z,23.50
2018-06-10T13:36:16.595Z,23.40
2018-06-10T13:38:45.863Z,23.30
2018-06-10T13:41:14.416Z,23.10
2018-06-10T13:43:42.890Z,23.00
2018-06-10T13:46:11.379Z,23.00
2018-06-10T13:51:12.782Z,23.00
2018-06-10T13:53:41.321Z,22.70
2018-06-10T13:56:14.434Z,22.60
2018-06-10T14:01:13.975Z,22.70
2018-06-10T14:03:47.173Z,22.60
2018-06-10T14:06:21.124Z,22.40
2018-06-10T14:08:55.712Z,22.30
2018-06-10T14:11:26.983Z,22.10
2018-06-10T14:13:55.498Z,21.90
2018-06-10T14:16:28.378Z,22.10
2018-06-10T14:21:25.176Z,22.30
2018-06-10T14:23:53.667Z,22.50
2018-06-10T14:26:22.144Z,22.80
2018-06-10T14:28:50.657Z,22.90
2018-06-10T14:31:19.174Z,23.00
2018-06-10T14:33:47.654Z,23.30
2018-06-10T14:36:16.147Z,23.00
2018-06-10T14:41:12.953Z,22.30
2018-06-10T14:43:41.525Z,21.90
2018-06-10T14:46:10.036Z,21.80
2018-06-10T14:48:38.539Z,21.70
2018-06-10T14:51:07.010Z,21.60
2018-06-10T14:53:35.525Z,21.50
2018-06-10T14:56:04.011Z,21.30
2018-06-10T14:58:32.490Z,21.10
2018-06-10T15:03:29.274Z,20.70
2018-06-10T15:05:57.821Z,20.60
2018-06-10T15:08:26.361Z,20.60
2018-06-10T15:10:54.885Z,20.70
2018-06-10T15:13:23.933Z,20.80
2018-06-10T15:15:52.492Z,20.80
2018-06-10T15:18:20.982Z,20.80
2018-06-10T15:20:49.507Z,20.80
2018-06-10T15:23:18.141Z,20.70
2018-06-10T15:25:46.659Z,20.50
2018-06-10T15:28:15.103Z,20.40
2018-06-10T15:30:43.630Z,20.30
2018-06-10T15:33:12.131Z,20.30
2018-06-10T15:35:40.690Z,20.30
2018-06-10T15:38:09.363Z,20.10
2018-06-10T15:40:38.031Z,20.00
2018-06-10T15:43:06.869Z,19.90
2018-06-10T15:45:35.410Z,19.80
2018-06-10T15:48:03.957Z,19.80
2018-06-10T15:50:32.473Z,19.60
2018-06-10T15:53:01.021Z,19.50
2018-06-10T15:55:29.580Z,19.50
2018-06-10T15:57:58.084Z,19.30
2018-06-10T16:00:26.657Z,19.20
2018-06-10T16:02:55.152Z,19.10
2018-06-10T16:05:23.831Z,19.10
2018-06-10T16:07:52.297Z,19.10
2018-06-10T16:10:20.849Z,19.10
2018-06-10T16:12:49.330Z,19.10
2018-06-10T16:15:17.905Z,19.10
2018-06-10T16:17:46.467Z,19.20
2018-06-10T16:22:43.301Z,19.20
2018-06-10T16:25:11.949Z,19.10
2018-06-10T16:27:40.442Z,19.00
2018-06-10T16:30:09.007Z,18.90
2018-06-10T16:32:37.577Z,18.70
2018-06-10T16:35:06.117Z,18.60
2018-06-10T16:37:34.698Z,18.50
2018-06-10T16:40:03.269Z,18.50
2018-06-10T16:42:35.217Z,18.50
2018-06-10T16:45:05.174Z,18.60
2018-06-10T16:47:35.280Z,18.60
2018-06-10T16:50:03.897Z,18.60
2018-06-10T16:52:32.511Z,18.50
2018-06-10T16:55:01.044Z,18.40
2018-06-10T16:57:29.591Z,18.50
2018-06-10T16:59:58.082Z,18.40
2018-06-10T17:02:26.657Z,18.30
2018-06-10T17:04:55.196Z,18.20
2018-06-10T17:09:51.949Z,18.20
2018-06-10T17:12:20.485Z,18.20
2018-06-10T17:14:49.045Z,18.20
2018-06-10T17:19:45.888Z,18.20
2018-06-10T17:22:14.383Z,18.10
2018-06-10T17:24:44.107Z,18.00
2018-06-10T17:27:12.649Z,17.90
2018-06-10T17:29:41.133Z,17.80
2018-06-10T17:32:09.692Z,17.80
2018-06-10T17:34:38.235Z,17.80
2018-06-10T17:37:06.761Z,17.80
2018-06-10T17:39:35.286Z,17.90
2018-06-10T17:44:32.342Z,18.00
2018-06-10T17:49:29.123Z,18.00
2018-06-10T17:51:57.627Z,18.10
2018-06-10T17:54:26.155Z,18.10
2018-06-10T17:56:54.714Z,18.10
2018-06-10T17:59:23.284Z,18.10
2018-06-10T18:01:51.971Z,18.10
2018-06-10T18:04:20.515Z,18.10
2018-06-10T18:06:49.103Z,18.00
2018-06-10T18:09:17.695Z,17.90
2018-06-10T18:11:46.180Z,17.80
2018-06-10T18:14:14.747Z,17.80
2018-06-10T18:19:11.425Z,17.80
2018-06-10T18:21:39.948Z,17.80
2018-06-10T18:24:08.608Z,17.80
2018-06-10T18:26:37.631Z,17.80
2018-06-10T18:29:06.108Z,17.70
2018-06-10T18:31:34.635Z,17.70
2018-06-10T18:36:31.407Z,17.60
2018-06-10T18:39:00.123Z,17.60
2018-06-10T18:43:57.082Z,17.60
2018-06-10T18:46:25.653Z,17.50
2018-06-10T18:48:54.175Z,17.50
2018-06-10T18:51:22.742Z,17.40
2018-06-10T18:53:51.266Z,17.40
2018-06-10T18:58:48.096Z,17.40
2018-06-10T19:01:16.581Z,17.30
2018-06-10T19:03:45.198Z,17.30
2018-06-10T19:06:13.731Z,17.30
2018-06-10T19:08:42.270Z,17.30
2018-06-10T19:11:11.113Z,17.30
2018-06-10T19:13:39.626Z,17.30
2018-06-10T19:16:08.165Z,17.30
2018-06-10T19:18:36.692Z,17.30
2018-06-10T19:21:05.521Z,17.20
2018-06-10T19:23:34.059Z,17.20
2018-06-10T19:26:02.539Z,17.20
2018-06-10T19:28:31.115Z,17.20
2018-06-10T19:30:59.634Z,17.10
2018-06-10T19:33:28.178Z,17.00
2018-06-10T19:35:56.748Z,17.00
2018-06-10T19:38:25.237Z,17.00
2018-06-10T19:40:53.770Z,17.00
2018-06-10T19:43:22.275Z,16.90
2018-06-10T19:45:50.801Z,16.90
2018-06-10T19:48:19.310Z,16.90
2018-06-10T19:53:16.037Z,16.70
2018-06-10T19:55:44.579Z,16.60
2018-06-10T19:58:13.092Z,16.50
2018-06-10T20:00:41.639Z,16.60
2018-06-10T20:03:10.177Z,16.50
2018-06-10T20:05:38.693Z,16.50
2018-06-10T20:08:07.262Z,16.50
2018-06-10T20:13:04.088Z,16.50
2018-06-10T20:15:32.763Z,16.40
2018-06-10T20:18:01.285Z,16.40
2018-06-10T20:20:29.799Z,16.30
2018-06-10T20:22:58.551Z,16.30
2018-06-10T20:25:27.073Z,16.20
2018-06-10T20:27:55.565Z,16.20
2018-06-10T20:30:24.802Z,16.10
2018-06-10T20:35:21.805Z,16.00
2018-06-10T20:37:50.348Z,15.90
2018-06-10T20:40:18.879Z,15.90
2018-06-10T20:42:47.399Z,15.80
2018-06-10T20:45:15.896Z,15.70
2018-06-10T20:47:44.388Z,15.50
2018-06-10T20:50:13.420Z,15.40
2018-06-10T20:52:41.907Z,15.20
2018-06-10T20:55:10.453Z,15.10
2018-06-10T20:57:41.324Z,14.90
2018-06-10T21:00:09.864Z,14.80
2018-06-10T21:02:38.393Z,14.70
2018-06-10T21:05:07.838Z,14.70
2018-06-10T21:07:36.379Z,14.50
2018-06-10T21:10:04.958Z,14.40
2018-06-10T21:12:33.485Z,14.30
2018-06-10T21:15:02.021Z,14.20
2018-06-10T21:17:31.977Z,14.10
2018-06-10T21:20:02.538Z,14.00
2018-06-10T21:22:31.298Z,14.00
2018-06-10T21:24:59.906Z,13.90
2018-06-10T21:27:28.408Z,13.90
2018-06-10T21:29:56.925Z,13.80
2018-06-10T21:32:25.429Z,13.80
2018-06-10T21:34:54.163Z,13.70
2018-06-10T21:37:22.666Z,13.70
2018-06-10T21:39:51.499Z,13.70
2018-06-10T21:42:19.989Z,13.60
2018-06-10T21:44:48.555Z,13.50
2018-06-10T21:47:17.045Z,13.40
2018-06-10T21:52:13.951Z,13.30
2018-06-10T21:57:10.744Z,13.10
2018-06-10T21:59:39.316Z,13.00
2018-06-10T22:02:09.825Z,12.90
2018-06-10T22:04:38.413Z,12.80
2018-06-10T22:07:07.030Z,12.80
2018-06-10T22:09:35.608Z,12.70
2018-06-10T22:12:04.228Z,12.70
2018-06-10T22:14:33.014Z,12.70
2018-06-10T22:17:01.566Z,12.60
2018-06-10T22:19:30.095Z,12.60
2018-06-10T22:21:58.627Z,12.50
2018-06-10T22:24:27.143Z,12.60
2018-06-10T22:26:55.980Z,12.80
2018-06-10T22:29:24.703Z,13.10
2018-06-10T22:31:53.322Z,13.20
2018-06-10T22:34:21.959Z,13.40
2018-06-10T22:36:50.755Z,13.50
2018-06-10T22:39:19.548Z,13.50
2018-06-10T22:41:48.724Z,13.60
2018-06-10T22:44:17.276Z,13.70
2018-06-10T22:46:45.849Z,13.80
2018-06-10T22:49:14.386Z,13.90
2018-06-10T22:51:42.926Z,14.00
2018-06-10T22:54:43.275Z,14.10
2018-06-10T22:57:11.838Z,14.20
2018-06-10T22:59:40.489Z,14.20
2018-06-10T23:02:09.834Z,14.30
2018-06-10T23:04:38.370Z,14.30
2018-06-10T23:07:06.873Z,14.40
2018-06-10T23:09:35.455Z,14.50
2018-06-10T23:12:04.029Z,14.50
2018-06-10T23:14:32.646Z,14.60
2018-06-10T23:17:01.595Z,14.70
2018-06-10T23:19:30.120Z,14.80
2018-06-10T23:21:58.599Z,14.80
2018-06-10T23:24:27.165Z,14.90
2018-06-10T23:26:55.645Z,14.90
2018-06-10T23:29:24.155Z,15.00
2018-06-10T23:31:52.728Z,15.00
2018-06-10T23:34:21.249Z,15.00
2018-06-10T23:36:50.807Z,15.00
2018-06-10T23:39:19.366Z,15.00
2018-06-10T23:41:47.862Z,15.00
2018-06-10T23:44:16.402Z,15.00
2018-06-10T23:46:44.888Z,15.00
2018-06-10T23:49:15.761Z,15.00
2018-06-10T23:51:45.299Z,15.00
2018-06-10T23:54:14.016Z,15.10
2018-06-10T23:59:10.733Z,15.10
